Time;durP1;ratioP1;P1;durP2;ratioP2;P2;SDS_P1;SDS_P2;PMS_P1;PMS_P2;Temp;Humidity;BMP_temperature;BMP_pressure;BME280_temperature;BME280_humidity;BME280_pressure;Samples;Min_cycle;Max_cycle;Signal;HPM_P1;HPM_P2
2023/12/25 00:02:13;;;;;;;8.77;1.60;;;12.40;1.00;;;;;;5010641;28;20662;-71
2023/12/25 00:04:39;;;;;;;2.57;1.23;;;12.10;1.00;;;;;;5029049;28;20188;-72
2023/12/25 00:07:07;;;;;;;3.13;1.57;;;12.10;1.00;;;;;;5028232;28;20197;-72
2023/12/25 00:09:32;;;;;;;2.80;1.20;;;12.00;1.00;;;;;;5011770;28;20295;-71
2023/12/25 00:11:58;;;;;;;1.47;1.20;;;12.00;1.00;;;;;;5010539;28;20941;-72
2023/12/25 00:14:24;;;;;;;1.83;1.23;;;12.10;1.00;;;;;;5011620;28;20277;-72
2023/12/25 00:16:49;;;;;;;5.33;1.47;;;12.10;1.00;;;;;;5028146;28;20188;-69
2023/12/25 00:19:15;;;;;;;4.10;1.20;;;12.00;1.00;;;;;;5029578;28;20193;-71
2023/12/25 00:21:40;;;;;;;1.70;1.10;;;12.10;1.00;;;;;;5010271;28;20197;-71
2023/12/25 00:24:06;;;;;;;2.73;1.30;;;12.10;1.00;;;;;;5029111;28;20198;-72
2023/12/25 00:26:31;;;;;;;8.37;2.67;;;12.00;1.00;;;;;;5010916;28;20188;-72
2023/12/25 00:28:57;;;;;;;6.60;1.80;;;12.00;1.00;;;;;;5016294;28;20213;-72
2023/12/25 00:31:22;;;;;;;2.83;1.30;;;12.00;1.00;;;;;;5028588;28;20186;-72
2023/12/25 00:33:48;;;;;;;2.17;1.50;;;11.90;1.00;;;;;;5028852;28;20229;-71
2023/12/25 00:36:14;;;;;;;3.13;1.10;;;11.90;1.00;;;;;;5010867;28;20217;-72
2023/12/25 00:38:39;;;;;;;3.87;1.10;;;11.90;1.00;;;;;;5010926;28;20206;-72
2023/12/25 00:41:05;;;;;;;1.93;1.20;;;11.80;1.00;;;;;;5010181;28;20711;-72
2023/12/25 00:43:30;;;;;;;3.03;1.10;;;11.80;1.00;;;;;;5025064;28;20244;-72
2023/12/25 00:45:57;;;;;;;1.50;1.20;;;11.70;1.00;;;;;;5030881;28;20652;-72
2023/12/25 00:48:23;;;;;;;1.33;0.90;;;11.70;1.00;;;;;;5029988;28;20728;-71
2023/12/25 00:50:48;;;;;;;1.63;1.07;;;11.60;1.00;;;;;;5013855;28;20428;-71
2023/12/25 00:53:14;;;;;;;1.23;1.10;;;11.60;1.00;;;;;;5010071;28;20178;-71
2023/12/25 00:55:40;;;;;;;2.17;1.20;;;11.60;1.00;;;;;;5013568;28;20212;-71
2023/12/25 00:58:05;;;;;;;4.93;1.03;;;11.60;1.00;;;;;;5032781;28;20240;-71
2023/12/25 01:00:31;;;;;;;2.60;1.00;;;11.60;1.00;;;;;;5013092;28;20618;-71
2023/12/25 01:02:57;;;;;;;3.77;1.20;;;11.50;1.00;;;;;;5031959;28;20648;-72
2023/12/25 01:05:22;;;;;;;2.40;1.20;;;11.50;1.00;;;;;;5030094;28;20178;-72
2023/12/25 01:07:48;;;;;;;3.37;1.00;;;11.40;1.00;;;;;;5031269;28;20205;-71
2023/12/25 01:10:14;;;;;;;3.13;1.20;;;11.40;1.00;;;;;;5014501;28;20181;-72
2023/12/25 01:12:40;;;;;;;2.53;1.00;;;11.30;1.00;;;;;;5014869;28;20429;-72
2023/12/25 01:15:06;;;;;;;1.70;1.30;;;11.30;1.00;;;;;;5031775;28;20193;-72
2023/12/25 01:17:31;;;;;;;2.63;1.20;;;11.20;1.00;;;;;;5013914;28;20205;-72
2023/12/25 01:19:57;;;;;;;6.70;1.40;;;11.20;1.00;;;;;;5031639;28;20210;-72
2023/12/25 01:22:22;;;;;;;2.30;1.10;;;11.20;1.00;;;;;;5031866;28;20178;-72
2023/12/25 01:24:49;;;;;;;2.20;1.10;;;11.10;1.00;;;;;;5013940;28;20174;-72
2023/12/25 01:27:14;;;;;;;5.30;1.27;;;11.10;1.00;;;;;;5032570;28;20202;-71
2023/12/25 01:29:40;;;;;;;2.70;1.17;;;11.10;1.00;;;;;;5011381;28;20955;-71
2023/12/25 01:32:06;;;;;;;1.33;1.00;;;11.10;1.00;;;;;;5013741;28;20174;-71
2023/12/25 01:34:31;;;;;;;4.10;1.20;;;11.00;1.00;;;;;;5031987;28;20182;-71
2023/12/25 01:36:56;;;;;;;1.77;1.10;;;11.00;1.00;;;;;;5029723;28;20213;-72
2023/12/25 01:39:23;;;;;;;1.40;1.17;;;11.10;1.00;;;;;;5014209;28;20184;-72
2023/12/25 01:41:49;;;;;;;1.40;1.10;;;11.10;1.00;;;;;;5008790;28;20229;-71
2023/12/25 01:44:14;;;;;;;1.10;0.90;;;11.00;1.00;;;;;;5031382;28;20429;-72
2023/12/25 01:46:40;;;;;;;1.30;1.17;;;11.00;1.00;;;;;;5028482;28;20758;-72
2023/12/25 01:49:05;;;;;;;2.73;1.30;;;11.00;1.00;;;;;;5025786;28;20709;-71
2023/12/25 01:51:31;;;;;;;3.40;1.20;;;11.00;1.00;;;;;;5031134;28;20721;-72
2023/12/25 01:53:58;;;;;;;1.37;1.07;;;11.00;1.00;;;;;;5029722;28;20188;-72
2023/12/25 01:56:24;;;;;;;1.93;1.40;;;11.10;1.00;;;;;;5011240;28;20429;-72
2023/12/25 01:58:49;;;;;;;1.33;1.20;;;11.10;1.00;;;;;;5029262;28;20506;-72
2023/12/25 02:01:15;;;;;;;7.13;1.23;;;11.00;1.00;;;;;;5028958;28;20210;-71
2023/12/25 02:03:40;;;;;;;1.20;0.90;;;11.00;1.00;;;;;;5027657;28;20186;-72
2023/12/25 02:06:06;;;;;;;1.30;1.10;;;11.00;1.00;;;;;;5022707;28;20185;-72
2023/12/25 02:08:32;;;;;;;1.47;1.13;;;11.00;1.00;;;;;;5012687;28;20575;-71
2023/12/25 02:11:04;;;;;;;1.77;1.13;;;11.00;1.00;;;;;;5010270;28;20184;-72
2023/12/25 02:13:30;;;;;;;1.20;1.00;;;11.00;1.00;;;;;;5013011;28;20930;-71
2023/12/25 02:15:56;;;;;;;2.30;1.17;;;11.00;1.00;;;;;;5010388;28;20443;-72
2023/12/25 02:18:23;;;;;;;1.50;0.90;;;11.00;1.00;;;;;;5027347;28;20279;-72
2023/12/25 02:20:48;;;;;;;2.50;1.00;;;11.00;1.00;;;;;;5012592;28;20467;-72
2023/12/25 02:23:16;;;;;;;2.13;1.00;;;11.00;1.00;;;;;;5012977;28;20425;-72
2023/12/25 02:26:02;;;;;;;1.43;0.90;;;11.00;1.00;;;;;;5030693;28;20240;-72
2023/12/25 02:28:28;;;;;;;1.30;1.00;;;11.00;1.00;;;;;;5031072;28;20827;-72
2023/12/25 02:30:53;;;;;;;2.17;1.10;;;11.00;1.00;;;;;;5030313;28;20450;-73
2023/12/25 02:33:19;;;;;;;2.23;0.93;;;11.00;1.00;;;;;;5030320;28;20703;-72
2023/12/25 02:35:45;;;;;;;1.97;1.10;;;11.00;1.00;;;;;;5012140;28;20193;-72
2023/12/25 02:38:10;;;;;;;1.10;0.90;;;11.00;1.00;;;;;;5030905;28;20231;-71
2023/12/25 02:40:39;;;;;;;1.33;1.00;;;10.90;1.00;;;;;;5030723;28;20296;-72
2023/12/25 02:43:08;;;;;;;1.20;1.10;;;11.00;1.00;;;;;;5030065;28;20192;-71
2023/12/25 02:45:34;;;;;;;1.50;1.17;;;10.90;1.00;;;;;;5010317;28;20906;-72
2023/12/25 02:47:59;;;;;;;3.80;1.43;;;11.00;1.00;;;;;;5030084;28;20479;-72
2023/12/25 02:50:25;;;;;;;1.20;1.00;;;11.00;1.00;;;;;;5029813;28;20174;-71
2023/12/25 02:52:50;;;;;;;2.07;1.17;;;10.90;1.00;;;;;;5030349;28;20241;-71
2023/12/25 02:55:16;;;;;;;1.30;1.10;;;10.90;1.00;;;;;;5011623;28;20208;-73
2023/12/25 02:57:41;;;;;;;1.40;1.00;;;10.90;1.00;;;;;;5030068;28;20206;-71
2023/12/25 03:00:07;;;;;;;1.40;1.17;;;10.90;1.00;;;;;;5030198;28;20216;-72
2023/12/25 03:02:33;;;;;;;1.20;0.90;;;10.90;1.00;;;;;;5029016;28;20699;-72
2023/12/25 03:04:59;;;;;;;3.47;1.10;;;10.90;1.00;;;;;;5030203;28;20444;-71
2023/12/25 03:07:24;;;;;;;2.23;1.00;;;10.80;1.00;;;;;;5029745;28;20286;-71
2023/12/25 03:09:50;;;;;;;2.40;0.90;;;10.80;1.00;;;;;;5030108;28;20198;-72
2023/12/25 03:12:15;;;;;;;1.63;1.00;;;10.90;1.00;;;;;;5030381;28;20244;-72
2023/12/25 03:14:41;;;;;;;1.27;1.00;;;10.90;1.00;;;;;;5030122;28;20264;-72
2023/12/25 03:17:06;;;;;;;1.50;0.90;;;10.90;1.00;;;;;;5011408;28;20213;-72
2023/12/25 03:19:32;;;;;;;3.30;1.10;;;10.90;1.00;;;;;;5029967;28;20263;-71
2023/12/25 03:21:57;;;;;;;2.27;0.90;;;10.90;1.00;;;;;;5029692;28;20193;-72
2023/12/25 03:24:23;;;;;;;1.20;1.00;;;10.80;1.00;;;;;;5010256;28;20182;-73
2023/12/25 03:26:49;;;;;;;2.30;1.20;;;10.90;1.00;;;;;;5028973;28;20186;-71
2023/12/25 03:29:15;;;;;;;1.10;0.90;;;10.90;1.00;;;;;;5029763;28;20177;-72
2023/12/25 03:31:40;;;;;;;1.00;0.90;;;10.90;1.00;;;;;;5009928;28;20472;-72
2023/12/25 03:34:06;;;;;;;1.60;1.10;;;10.90;1.00;;;;;;5029207;28;20652;-72
2023/12/25 03:36:31;;;;;;;1.20;0.93;;;10.80;1.00;;;;;;5029331;28;20186;-72
2023/12/25 03:38:57;;;;;;;1.10;0.90;;;10.80;1.00;;;;;;5029701;28;20212;-72
2023/12/25 03:41:22;;;;;;;1.70;1.10;;;10.80;1.00;;;;;;5027893;28;20216;-71
2023/12/25 03:43:48;;;;;;;4.50;1.40;;;10.80;1.00;;;;;;5028579;28;20273;-72
2023/12/25 03:46:13;;;;;;;1.70;0.90;;;10.80;1.00;;;;;;5028827;28;20204;-72
2023/12/25 03:48:39;;;;;;;1.77;0.90;;;10.80;1.00;;;;;;5027878;28;20332;-72
2023/12/25 03:51:04;;;;;;;1.53;1.00;;;10.80;1.00;;;;;;5028495;28;20271;-72
2023/12/25 03:53:31;;;;;;;1.53;1.00;;;10.70;1.00;;;;;;5030002;28;20616;-72
2023/12/25 03:56:01;;;;;;;1.37;0.90;;;10.80;1.00;;;;;;5028620;28;20188;-71
2023/12/25 03:58:27;;;;;;;1.20;1.00;;;10.80;1.00;;;;;;5029815;28;20470;-72
2023/12/25 04:00:52;;;;;;;1.40;1.00;;;10.80;1.00;;;;;;5029158;28;20966;-71
2023/12/25 04:03:18;;;;;;;2.90;1.17;;;10.80;1.00;;;;;;5029386;28;20663;-72
2023/12/25 04:05:43;;;;;;;2.03;1.30;;;10.80;1.00;;;;;;5011968;28;20178;-72
2023/12/25 04:08:09;;;;;;;1.57;1.20;;;10.90;1.00;;;;;;5028257;28;20209;-72
2023/12/25 04:10:35;;;;;;;1.70;1.50;;;10.90;1.00;;;;;;5029792;28;20867;-72
2023/12/25 04:13:00;;;;;;;1.10;0.90;;;10.80;1.00;;;;;;5029467;28;20777;-72
2023/12/25 04:15:26;;;;;;;1.80;1.17;;;10.80;1.00;;;;;;5027926;28;20185;-72
2023/12/25 04:17:51;;;;;;;1.03;0.90;;;10.80;1.00;;;;;;5030068;28;20613;-72
2023/12/25 04:20:16;;;;;;;2.20;1.13;;;10.80;1.00;;;;;;5032653;28;20205;-72
2023/12/25 04:22:42;;;;;;;1.30;1.00;;;10.80;1.00;;;;;;5033172;28;20231;-72
2023/12/25 04:25:08;;;;;;;1.13;1.00;;;10.90;1.00;;;;;;5014862;28;20648;-72
2023/12/25 04:27:33;;;;;;;2.30;1.00;;;10.90;1.00;;;;;;5032861;28;20205;-72
2023/12/25 04:29:59;;;;;;;1.40;1.10;;;10.80;1.00;;;;;;5031951;28;20201;-71
2023/12/25 04:32:25;;;;;;;1.97;1.40;;;10.90;1.00;;;;;;5015235;28;20239;-72
2023/12/25 04:34:50;;;;;;;2.33;1.13;;;10.80;1.00;;;;;;5032932;28;20537;-72
2023/12/25 04:37:16;;;;;;;1.40;1.10;;;10.80;1.00;;;;;;5032151;28;20237;-72
2023/12/25 04:39:41;;;;;;;1.17;1.00;;;10.90;1.00;;;;;;5033035;28;20343;-72
2023/12/25 04:42:07;;;;;;;1.30;1.00;;;10.90;1.00;;;;;;5025701;28;20179;-72
2023/12/25 04:44:33;;;;;;;1.20;1.00;;;10.90;1.00;;;;;;5012515;28;20551;-72
2023/12/25 04:46:58;;;;;;;1.40;1.13;;;10.90;1.00;;;;;;5027567;28;20846;-72
2023/12/25 04:49:24;;;;;;;1.87;1.17;;;10.90;1.00;;;;;;5008256;28;20456;-72
2023/12/25 04:51:49;;;;;;;1.30;1.10;;;10.80;1.00;;;;;;5029463;28;20252;-72
2023/12/25 04:54:15;;;;;;;2.43;1.10;;;10.80;1.00;;;;;;5013800;28;20182;-72
2023/12/25 04:56:41;;;;;;;1.73;1.17;;;10.80;1.00;;;;;;5032191;28;20182;-72
2023/12/25 04:59:06;;;;;;;5.13;1.20;;;10.80;1.00;;;;;;5032188;28;20224;-72
2023/12/25 05:01:32;;;;;;;1.43;1.03;;;10.80;1.00;;;;;;5021686;28;20206;-72
2023/12/25 05:03:57;;;;;;;2.00;1.33;;;10.80;1.00;;;;;;5030953;28;20682;-72
2023/12/25 05:06:23;;;;;;;4.63;1.37;;;10.80;1.00;;;;;;5031993;28;20188;-72
2023/12/25 05:08:48;;;;;;;3.10;1.20;;;10.80;1.00;;;;;;5031973;28;20194;-72
2023/12/25 05:11:14;;;;;;;1.77;1.20;;;10.70;1.00;;;;;;5025916;28;20196;-72
2023/12/25 05:13:39;;;;;;;1.50;1.30;;;10.80;1.00;;;;;;5014473;28;20178;-72
2023/12/25 05:16:05;;;;;;;1.90;1.27;;;10.80;1.00;;;;;;5028370;28;20185;-72
2023/12/25 05:18:30;;;;;;;1.40;1.30;;;10.80;1.00;;;;;;5031341;28;20224;-73
2023/12/25 05:20:56;;;;;;;3.07;1.40;;;10.80;1.00;;;;;;5030375;28;20210;-72
2023/12/25 05:23:21;;;;;;;1.50;1.20;;;10.80;1.00;;;;;;5031252;28;20182;-72
2023/12/25 05:25:47;;;;;;;1.53;1.20;;;10.80;1.00;;;;;;5013151;28;20474;-72
2023/12/25 05:28:12;;;;;;;1.50;1.40;;;10.80;1.00;;;;;;5030280;28;20288;-72
2023/12/25 05:30:38;;;;;;;1.30;1.17;;;10.90;1.00;;;;;;5025218;28;20186;-72
2023/12/25 05:33:04;;;;;;;1.90;1.20;;;10.90;1.00;;;;;;5030614;28;20200;-72
2023/12/25 05:35:29;;;;;;;2.73;1.23;;;10.90;1.00;;;;;;5029019;28;20182;-72
2023/12/25 05:37:55;;;;;;;1.20;1.00;;;10.80;1.00;;;;;;5028285;28;20352;-72
2023/12/25 05:40:22;;;;;;;1.83;1.23;;;10.80;1.00;;;;;;5031266;28;20254;-72
2023/12/25 05:42:47;;;;;;;3.17;1.53;;;10.90;1.00;;;;;;5030454;28;20435;-72
2023/12/25 05:45:13;;;;;;;2.27;1.10;;;10.80;1.00;;;;;;5027535;28;20422;-72
2023/12/25 05:47:39;;;;;;;2.73;1.20;;;10.90;1.00;;;;;;5030045;28;20208;-72
2023/12/25 05:50:07;;;;;;;3.20;1.37;;;10.90;1.00;;;;;;5011807;28;20936;-72
2023/12/25 05:52:33;;;;;;;1.70;1.40;;;10.90;1.00;;;;;;5012885;28;20443;-72
2023/12/25 05:55:00;;;;;;;1.47;1.07;;;10.90;1.00;;;;;;5027526;28;20877;-72
2023/12/25 05:57:28;;;;;;;17.93;1.90;;;10.90;1.00;;;;;;5012039;28;20205;-72
2023/12/25 05:59:54;;;;;;;3.37;1.20;;;10.90;1.00;;;;;;5011609;28;20827;-72
2023/12/25 06:02:19;;;;;;;2.40;1.20;;;10.90;1.00;;;;;;5029927;28;20495;-72
2023/12/25 06:04:45;;;;;;;1.33;1.23;;;10.90;1.00;;;;;;5009521;28;20213;-71
2023/12/25 06:07:11;;;;;;;2.50;1.90;;;10.90;1.00;;;;;;5027130;28;20229;-72
2023/12/25 06:09:37;;;;;;;1.50;1.30;;;10.90;1.00;;;;;;5030465;28;20208;-72
2023/12/25 06:12:03;;;;;;;1.40;1.10;;;10.90;1.00;;;;;;5012546;28;20428;-72
2023/12/25 06:14:28;;;;;;;2.63;1.50;;;10.90;1.00;;;;;;5011633;28;20178;-72
2023/12/25 06:16:54;;;;;;;2.20;1.30;;;10.80;1.00;;;;;;5030674;28;20680;-72
2023/12/25 06:19:19;;;;;;;1.70;1.10;;;10.80;1.00;;;;;;5030857;28;20213;-72
2023/12/25 06:21:45;;;;;;;2.10;1.50;;;10.80;1.00;;;;;;5026755;28;20185;-72
2023/12/25 06:24:10;;;;;;;1.37;1.07;;;10.80;1.00;;;;;;5011625;28;20265;-72
2023/12/25 06:26:36;;;;;;;2.97;1.13;;;10.80;1.00;;;;;;5012681;28;20177;-72
2023/12/25 06:29:02;;;;;;;2.37;1.10;;;10.90;1.00;;;;;;5030984;28;20214;-72
2023/12/25 06:31:28;;;;;;;3.30;1.93;;;10.90;1.00;;;;;;5029013;28;20178;-72
2023/12/25 06:33:53;;;;;;;2.97;1.07;;;10.90;1.00;;;;;;5012500;28;20511;-72
2023/12/25 06:36:19;;;;;;;1.47;1.00;;;10.90;1.00;;;;;;5029837;28;20201;-72
2023/12/25 06:38:44;;;;;;;1.30;1.00;;;10.90;1.00;;;;;;5011451;28;20213;-72
2023/12/25 06:41:11;;;;;;;5.70;1.33;;;10.90;1.00;;;;;;5023645;28;20250;-71
2023/12/25 06:43:36;;;;;;;6.20;1.30;;;10.90;1.00;;;;;;5029778;28;20239;-72
2023/12/25 06:46:02;;;;;;;2.27;1.10;;;10.90;1.00;;;;;;5013537;28;20503;-72
2023/12/25 06:48:28;;;;;;;2.93;1.10;;;10.90;1.00;;;;;;5010872;28;20208;-72
2023/12/25 06:50:54;;;;;;;1.20;0.90;;;10.90;1.00;;;;;;5030292;28;20178;-72
2023/12/25 06:53:20;;;;;;;1.30;1.00;;;10.90;1.00;;;;;;5028389;28;20432;-72
2023/12/25 06:55:45;;;;;;;3.50;1.77;;;10.90;1.00;;;;;;5030090;28;20186;-72
2023/12/25 06:58:11;;;;;;;2.97;1.10;;;10.90;1.00;;;;;;5026715;28;20289;-72
2023/12/25 07:00:36;;;;;;;3.93;1.67;;;10.90;1.00;;;;;;5030292;28;20206;-72
2023/12/25 07:03:02;;;;;;;2.03;1.17;;;10.90;1.00;;;;;;5012219;28;20177;-72
2023/12/25 07:05:28;;;;;;;3.10;1.20;;;10.90;1.00;;;;;;5029546;28;20182;-72
2023/12/25 07:07:53;;;;;;;2.80;1.50;;;10.90;1.00;;;;;;5028771;28;20205;-72
2023/12/25 07:10:19;;;;;;;3.13;1.37;;;10.90;1.00;;;;;;5029989;28;20204;-73
2023/12/25 07:12:44;;;;;;;6.37;1.27;;;10.80;1.00;;;;;;5030168;28;20181;-72
2023/12/25 07:15:10;;;;;;;1.87;0.97;;;10.80;1.00;;;;;;5010626;28;20182;-72
2023/12/25 07:17:35;;;;;;;2.07;1.10;;;10.70;1.00;;;;;;5028824;28;20239;-72
2023/12/25 07:20:01;;;;;;;2.80;1.20;;;10.70;1.00;;;;;;5030034;28;20220;-72
2023/12/25 07:22:29;;;;;;;2.90;1.20;;;10.80;1.00;;;;;;5011585;28;20178;-71
2023/12/25 07:24:54;;;;;;;2.23;1.40;;;10.80;1.00;;;;;;5028540;28;20416;-71
2023/12/25 07:27:20;;;;;;;3.60;1.77;;;;;;;;;;5025363;22;20452;31
2023/12/25 07:29:46;;;;;;;4.90;1.43;;;10.30;1.00;;;;;;4990198;28;20261;-75
2023/12/25 07:32:11;;;;;;;2.17;1.10;;;10.70;1.00;;;;;;4993196;28;20187;-74
2023/12/25 07:34:37;;;;;;;2.40;1.03;;;9.50;1.00;;;;;;5002617;28;20183;-76
2023/12/25 07:37:03;;;;;;;2.40;1.43;;;10.70;1.00;;;;;;4994887;28;20258;-76
2023/12/25 07:39:28;;;;;;;4.23;1.80;;;10.70;1.00;;;;;;5009115;28;20202;-75
2023/12/25 07:41:55;;;;;;;4.60;1.30;;;10.70;1.00;;;;;;4991647;28;20426;-75
2023/12/25 07:44:21;;;;;;;2.30;1.30;;;10.80;1.00;;;;;;5009686;28;20183;-76
2023/12/25 07:46:47;;;;;;;2.37;1.30;;;10.70;1.00;;;;;;5009689;28;20421;-76
2023/12/25 07:49:12;;;;;;;1.10;0.90;;;10.80;1.00;;;;;;5009781;28;20452;-72
2023/12/25 07:51:38;;;;;;;1.77;1.13;;;10.80;1.00;;;;;;4992091;28;20182;-76
2023/12/25 07:54:03;;;;;;;2.17;1.23;;;10.80;1.00;;;;;;4991960;28;20195;-76
2023/12/25 07:56:29;;;;;;;2.70;1.60;;;10.80;1.00;;;;;;5008860;28;20186;-76
2023/12/25 07:58:54;;;;;;;1.57;1.40;;;12.00;1.00;;;;;;5009778;28;20210;-76
2023/12/25 08:01:22;;;;;;;1.70;1.20;;;10.90;1.00;;;;;;5008944;28;20593;-77
2023/12/25 08:03:51;;;;;;;2.80;1.40;;;10.80;1.00;;;;;;5010149;28;20174;-75
2023/12/25 08:06:17;;;;;;;2.23;1.27;;;10.80;1.00;;;;;;5008616;28;20421;-77
2023/12/25 08:08:43;;;;;;;8.57;4.67;;;10.70;1.00;;;;;;5009511;28;20437;-76
2023/12/25 08:11:12;;;;;;;6.67;3.17;;;10.70;1.00;;;;;;5009496;28;20418;-75
2023/12/25 08:13:38;;;;;;;8.20;3.23;;;10.70;1.00;;;;;;5008838;28;20876;-77
2023/12/25 08:16:03;;;;;;;3.63;2.10;;;10.90;1.00;;;;;;5009593;28;20437;-78
2023/12/25 08:18:30;;;;;;;3.47;2.17;;;11.30;1.00;;;;;;5009900;28;20202;-77
2023/12/25 08:20:55;;;;;;;7.27;2.90;;;11.50;1.00;;;;;;5009894;28;20616;-77
2023/12/25 08:23:21;;;;;;;5.27;2.40;;;11.70;1.00;;;;;;5008866;28;20475;-80
2023/12/25 08:25:47;;;;;;;2.77;1.70;;;11.60;1.00;;;;;;5008939;28;20800;-75
2023/12/25 08:28:13;;;;;;;6.53;3.20;;;11.50;1.00;;;;;;5008921;28;20759;-75
2023/12/25 08:30:38;;;;;;;2.87;1.37;;;11.30;1.00;;;;;;4990728;28;20508;-76
2023/12/25 08:33:04;;;;;;;2.30;1.20;;;11.10;1.00;;;;;;5009038;28;20277;-77
2023/12/25 08:35:29;;;;;;;2.07;1.80;;;11.00;1.00;;;;;;5008288;28;20249;-75
2023/12/25 08:37:55;;;;;;;1.80;1.40;;;11.00;1.00;;;;;;4991241;28;20202;-75
2023/12/25 08:40:20;;;;;;;2.40;1.27;;;11.00;1.00;;;;;;5007755;28;20214;-75
2023/12/25 08:42:46;;;;;;;5.03;1.30;;;10.90;1.00;;;;;;5008910;28;20183;-77
2023/12/25 08:45:11;;;;;;;1.50;1.40;;;10.90;1.00;;;;;;5008709;28;20731;-78
2023/12/25 08:47:37;;;;;;;1.63;1.17;;;10.90;1.00;;;;;;5008056;28;20221;-76
2023/12/25 08:50:02;;;;;;;2.40;1.27;;;10.90;1.00;;;;;;5008812;28;20254;-76
2023/12/25 08:52:28;;;;;;;1.23;1.00;;;10.90;1.00;;;;;;4990698;28;20290;-76
2023/12/25 08:54:54;;;;;;;3.63;1.20;;;10.90;1.00;;;;;;4990746;28;20646;-76
2023/12/25 08:57:19;;;;;;;2.37;1.30;;;10.90;1.00;;;;;;5008371;28;20183;-73
2023/12/25 08:59:49;;;;;;;2.00;1.37;;;10.90;1.00;;;;;;5008809;28;20214;-78
2023/12/25 09:02:15;;;;;;;5.63;1.23;;;10.90;1.00;;;;;;5004364;28;20175;-76
2023/12/25 09:04:40;;;;;;;2.13;1.03;;;10.80;1.00;;;;;;5008646;28;20456;-76
2023/12/25 09:07:06;;;;;;;2.70;1.10;;;10.70;1.00;;;;;;5011439;28;20785;-76
2023/12/25 09:09:32;;;;;;;2.07;1.40;;;10.70;1.00;;;;;;5011723;28;20639;-76
2023/12/25 09:11:57;;;;;;;2.27;1.20;;;10.60;1.00;;;;;;4994386;28;20187;-78
2023/12/25 09:14:23;;;;;;;1.60;1.40;;;10.60;1.00;;;;;;5011760;28;20193;-76
2023/12/25 09:16:48;;;;;;;2.80;1.03;;;10.60;1.00;;;;;;5012024;28;20223;-76
2023/12/25 09:19:14;;;;;;;2.03;1.50;;;10.50;1.00;;;;;;5011492;28;20213;-77
2023/12/25 09:21:39;;;;;;;1.97;1.30;;;10.30;1.00;;;;;;5010821;28;20617;-74
2023/12/25 09:24:05;;;;;;;1.30;1.10;;;10.20;1.00;;;;;;4994401;28;20266;-77
2023/12/25 09:26:30;;;;;;;1.40;1.30;;;10.20;1.00;;;;;;5011238;28;20225;-75
2023/12/25 09:28:56;;;;;;;1.70;1.40;;;10.10;1.00;;;;;;4994165;28;20202;-75
2023/12/25 09:31:22;;;;;;;1.50;1.10;;;10.10;1.00;;;;;;4993164;28;20594;-74
2023/12/25 09:33:47;;;;;;;2.87;1.27;;;10.10;1.00;;;;;;5010892;28;20175;-76
2023/12/25 09:36:14;;;;;;;1.17;1.00;;;10.10;1.00;;;;;;5010550;28;20216;-75
2023/12/25 09:38:40;;;;;;;1.97;1.10;;;10.00;1.00;;;;;;5010170;28;20210;-75
2023/12/25 09:41:10;;;;;;;1.93;1.83;;;10.10;1.00;;;;;;5010914;28;20514;-75
2023/12/25 09:43:41;;;;;;;1.60;1.30;;;10.00;1.00;;;;;;4991590;28;20475;-75
2023/12/25 09:46:09;;;;;;;1.97;1.20;;;10.10;1.00;;;;;;4992501;28;20425;-77
2023/12/25 09:48:37;;;;;;;3.57;1.10;;;10.10;1.00;;;;;;5010534;28;21195;-77
2023/12/25 09:51:04;;;;;;;2.80;1.40;;;10.00;1.00;;;;;;4992864;28;20425;-75
2023/12/25 09:53:30;;;;;;;1.80;1.30;;;10.00;1.00;;;;;;5010052;28;20429;-76
2023/12/25 09:55:58;;;;;;;1.80;1.10;;;10.00;1.00;;;;;;5010303;28;20429;-75
2023/12/25 09:58:23;;;;;;;2.90;1.43;;;10.10;1.00;;;;;;5010658;28;20210;-76
2023/12/25 10:00:49;;;;;;;1.40;1.17;;;10.10;1.00;;;;;;4992488;28;20464;-75
2023/12/25 10:03:17;;;;;;;1.23;0.90;;;10.10;1.00;;;;;;4993021;28;20190;-75
2023/12/25 10:05:43;;;;;;;2.57;1.10;;;10.20;1.00;;;;;;4991920;28;20520;-75
2023/12/25 10:08:09;;;;;;;3.57;1.83;;;10.00;1.00;;;;;;5010464;28;20455;-78
2023/12/25 10:10:36;;;;;;;1.63;1.20;;;10.00;1.00;;;;;;5009811;28;20433;-78
2023/12/25 10:13:01;;;;;;;4.30;1.50;;;10.20;1.00;;;;;;5010701;28;20194;-78
2023/12/25 10:15:27;;;;;;;2.03;1.57;;;10.20;1.00;;;;;;5009941;28;20591;-76
2023/12/25 10:18:05;;;;;;;1.53;1.30;;;10.20;1.00;;;;;;4992213;28;20684;-77
2023/12/25 10:20:31;;;;;;;2.90;1.30;;;10.10;1.00;;;;;;5009985;28;20213;-77
2023/12/25 10:22:57;;;;;;;4.53;2.30;;;10.10;1.00;;;;;;5010136;28;20915;-78
2023/12/25 10:25:28;;;;;;;1.40;1.00;;;10.20;1.00;;;;;;5009878;28;20214;-77
2023/12/25 10:27:54;;;;;;;9.87;4.17;;;10.20;1.00;;;;;;5010045;28;20547;-78
2023/12/25 10:30:26;;;;;;;26.27;11.83;;;10.20;1.00;;;;;;4992699;28;20429;-78
2023/12/25 10:33:13;;;;;;;2.20;1.40;;;10.20;1.00;;;;;;5009462;28;20421;-77
2023/12/25 10:35:39;;;;;;;2.20;1.93;;;10.10;1.00;;;;;;5009435;28;20417;-77
2023/12/25 10:38:05;;;;;;;2.57;1.60;;;10.10;1.00;;;;;;5009636;28;20452;-78
2023/12/25 10:40:32;;;;;;;2.33;1.23;;;10.10;1.00;;;;;;5008961;28;20469;-78
2023/12/25 10:42:58;;;;;;;1.20;0.90;;;10.10;1.00;;;;;;5006924;28;20938;-78
2023/12/25 10:45:25;;;;;;;1.90;1.70;;;10.10;1.00;;;;;;5008425;28;20413;-78
2023/12/25 10:47:53;;;;;;;3.93;1.87;;;10.20;1.00;;;;;;5008744;28;20459;-78
2023/12/25 10:50:26;;;;;;;1.27;1.00;;;10.20;1.00;;;;;;5008917;28;20428;-77
2023/12/25 10:52:59;;;;;;;5.03;1.73;;;10.20;1.00;;;;;;5009556;28;21167;-78
2023/12/25 10:55:35;;;;;;;3.30;2.50;;;10.10;1.00;;;;;;4991695;28;20433;-77
2023/12/25 10:58:03;;;;;;;4.47;1.87;;;10.10;1.00;;;;;;5002525;28;20540;-78
2023/12/25 11:00:30;;;;;;;1.60;1.37;;;10.10;1.00;;;;;;4987045;28;20999;-78
2023/12/25 11:03:00;;;;;;;2.03;1.67;;;10.20;1.00;;;;;;5006388;28;20513;-78
2023/12/25 11:05:26;;;;;;;1.30;1.10;;;10.20;1.00;;;;;;4984108;28;20434;-77
2023/12/25 11:07:52;;;;;;;2.20;1.40;;;10.20;1.00;;;;;;5008766;28;20448;-78
2023/12/25 11:10:18;;;;;;;2.30;1.50;;;10.20;1.00;;;;;;5009070;28;20422;-76
2023/12/25 11:12:44;;;;;;;1.80;1.70;;;10.20;1.00;;;;;;5009330;28;20214;-77
2023/12/25 11:15:11;;;;;;;1.53;1.27;;;10.20;1.00;;;;;;5008973;28;20198;-77
2023/12/25 11:17:37;;;;;;;2.13;1.60;;;10.30;1.00;;;;;;5008057;28;20473;-77
2023/12/25 11:20:04;;;;;;;1.83;1.33;;;10.30;1.00;;;;;;5003996;28;20491;-77
2023/12/25 11:22:53;;;;;;;2.43;1.80;;;10.20;1.00;;;;;;5006663;28;20435;-77
2023/12/25 11:25:20;;;;;;;1.57;1.40;;;10.20;1.00;;;;;;5002712;28;20422;-77
2023/12/25 11:27:55;;;;;;;2.60;1.10;;;10.20;1.00;;;;;;5006483;28;20811;-77
2023/12/25 11:30:24;;;;;;;1.30;0.90;;;10.10;1.00;;;;;;5007325;28;20567;-77
2023/12/25 11:32:51;;;;;;;1.97;1.10;;;10.10;1.00;;;;;;4987809;28;20422;-78
2023/12/25 11:35:27;;;;;;;1.50;1.30;;;10.00;1.00;;;;;;5004986;28;20425;-77
2023/12/25 11:38:24;;;;;;;1.40;1.07;;;10.10;1.00;;;;;;5006670;28;20945;-78
2023/12/25 11:40:50;;;;;;;1.30;1.17;;;10.10;1.00;;;;;;5007411;28;20568;-78
2023/12/25 11:43:18;;;;;;;2.43;1.20;;;10.10;1.00;;;;;;4987201;28;20907;-77
2023/12/25 11:45:44;;;;;;;1.80;1.40;;;10.10;1.00;;;;;;5003717;28;20437;-78
2023/12/25 11:48:11;;;;;;;1.80;1.40;;;10.20;1.00;;;;;;4991209;28;20828;-77
2023/12/25 11:50:37;;;;;;;2.17;1.30;;;10.10;1.00;;;;;;5008855;28;20512;-75
2023/12/25 11:53:03;;;;;;;2.23;1.80;;;10.10;1.00;;;;;;5008769;28;20426;-77
2023/12/25 11:55:30;;;;;;;1.77;1.40;;;10.10;1.00;;;;;;4991373;28;20811;-78
2023/12/25 11:57:56;;;;;;;3.03;1.40;;;10.20;1.00;;;;;;5009735;28;20229;-75
2023/12/25 12:00:25;;;;;;;2.10;1.10;;;10.20;1.00;;;;;;5008478;28;20465;-76
2023/12/25 12:02:51;;;;;;;1.63;1.17;;;10.20;1.00;;;;;;4991132;28;20421;-73
2023/12/25 12:05:16;;;;;;;1.30;1.20;;;10.30;1.00;;;;;;5008593;28;20429;-76
2023/12/25 12:07:45;;;;;;;3.23;1.13;;;10.40;1.00;;;;;;5009361;28;20715;-76
2023/12/25 12:10:11;;;;;;;1.60;1.30;;;10.40;1.00;;;;;;5009589;28;20174;-76
2023/12/25 12:12:37;;;;;;;1.83;1.30;;;10.50;1.00;;;;;;4991668;28;20429;-77
2023/12/25 12:15:04;;;;;;;2.07;1.40;;;10.60;1.00;;;;;;4991467;28;20426;-76
2023/12/25 12:17:30;;;;;;;2.07;1.20;;;10.60;1.00;;;;;;5009407;28;20186;-76
2023/12/25 12:19:56;;;;;;;2.53;1.10;;;10.60;1.00;;;;;;5009280;28;20527;-77
2023/12/25 12:22:23;;;;;;;1.40;1.03;;;10.50;1.00;;;;;;4992037;28;20443;-77
2023/12/25 12:24:49;;;;;;;1.40;1.10;;;10.50;1.00;;;;;;5008712;28;20175;-75
2023/12/25 12:27:21;;;;;;;2.67;1.60;;;10.50;1.00;;;;;;5009055;28;20953;-76
2023/12/25 12:29:48;;;;;;;1.53;1.30;;;10.50;1.00;;;;;;5009325;28;20256;-76
2023/12/25 12:32:13;;;;;;;3.37;1.90;;;10.60;1.00;;;;;;5009278;28;20461;-76
2023/12/25 12:34:39;;;;;;;3.10;1.80;;;10.60;1.00;;;;;;4991640;28;20472;-76
2023/12/25 12:37:05;;;;;;;1.40;1.20;;;10.60;1.00;;;;;;5008704;28;20179;-76
2023/12/25 12:39:34;;;;;;;2.90;1.80;;;10.60;1.00;;;;;;5010166;28;20209;-76
2023/12/25 12:42:00;;;;;;;1.80;1.40;;;10.50;1.00;;;;;;5007861;28;20191;-76
2023/12/25 12:44:26;;;;;;;5.07;1.83;;;10.60;1.00;;;;;;5013090;28;20932;-76
2023/12/25 12:46:53;;;;;;;3.27;2.00;;;10.60;1.00;;;;;;5011628;28;20433;-76
2023/12/25 12:49:22;;;;;;;3.20;1.97;;;10.60;1.00;;;;;;4994506;28;20967;-77
2023/12/25 12:51:48;;;;;;;5.30;2.90;;;10.50;1.00;;;;;;5012403;28;20807;-77
2023/12/25 12:54:14;;;;;;;1.50;1.20;;;10.60;1.00;;;;;;5013075;28;20433;-76